Etusivu
METAR-TAF:

METAR-TAF

Lentoasemat :

Owatonna Degner Regional Airport

Owatonna, Minnesota, Yhdysvallat

Leveyspiiri: 44-07N, Pituuspiiri: 093-15W, korkeus merenpinnasta: 350 m

Tämänhetkinen sää

Tämä raportti tehtiin 19 minuuttia sitten, kello 09.56 UTC
Tuuli 11 kn lännestä/luoteesta
Lämpötila 6°C
Kosteus 61%
Ilmanpaine 1015 hPa
Näkyvyys: 16.1 km
selkeää

METAR: KOWA 260956Z AUTO 30011KT 10SM CLR 06/M01 A2997 RMK AO2

Aika: 05:15 (10:15 UTC)


TAF: puuttuu

Säähavainnot ja -ennusteet yli 4000 lentoasemalta (METAR- ja TAF-raportit).

Käytössä olevat sääasemat on merkitty karttaan keltaisilla ja punaisilla pisteillä.

Aseta hiiri pisteen päälle nähdäksesi sääaseman nimen.

Klikkaa sitten nähdäksesi säähavainnot ja -ennusteet.

Kartan vaihtaminen: klikkaa mustalla rastilla varustettuja vihreitä pisteitä, niin voit zoomata sisään; viivalla varustettua vihreää pistettä, niin voit zoomata ulos tai vihreitä nuolia, niin pääset viereisille kartoille.


METAR-TAF: